Česky Dansk Deutsch English Español Suomi Français Magyar Italiano Nederlands norsk Polski Português svenska Türkçe

 

Het Weer

Oruro (Bolivië)

20:00, 20 juli 2016 (GMT)

NWNNE
WE
SWSSE
Home            
Oruro Cochabamba La Paz / Alto Sucre Potosi Charana Tacna San Borja Arica San Ignacio De Moxos Apolo Rurrenabaque Reyes Santa Cruz / El Trompillo Viru-Viru Trinidad Juliaca Iquique / Diego Arac Camiri Tarija La Quiaca Observatorio Ascencion De Guarayos Santa Ana

Om een weerknop op uw website of weblog te plaatsen, copieer onderstaande code en plak die in uw pagina. In het eerste vakje staat HTML-code, in het tweede vakje UBB-code.


Add to Google

Details

Wind speed:3 bf, 10 kn, 5.1 m/s, 11.5 miles/h, 18.5 km/h
Wind direction:S, 170°
Visibility:Greater than 10000 m, 10 km, 32800 ft, 6.2 miles
Clouds:Ein wenig bewölkt at 1700 ft, 518 m
Aufgelockert bewölkt at 20000 ft, 6096 m
Temperature:16°C, 61°F
Dew-point:-2°C, 28°F
Atmospheric pressure:1037 hPa, 777.8 mmHg, 30.62 inHg, 1.023 atm
Relative humidity:29.0 %
METAR:SLOR 202000Z 17010KT 9999 FEW017 SCT200 16/M02 Q1037

Snelkoppelingen

Actuele weersinformatie van de hele wereld. Voeg locaties toe met het plus (+) symbool. Deze snelkoppelingen kunnen worden toegevoegd aan Google.

Lid van de Technetium groep

website free tracking
StatCounter NetStat W3C Validator

25-11-2020 09:06:30
astro.technetium.be money.technetium.be phote.technetium.be tafeltennistafel.technetium.be www.ligfiets.net